Time;durP1;ratioP1;P1;durP2;ratioP2;P2;SDS_P1;SDS_P2;PMS_P1;PMS_P2;Temp;Humidity;BMP_temperature;BMP_pressure;BME280_temperature;BME280_humidity;BME280_pressure;Samples;Min_cycle;Max_cycle;Signal;HPM_P1;HPM_P2
2024/03/19 00:01:35;;;;;;;8.10;7.40;;;;;;;9.46;68.12;101262.84;4995035;28;20211;-79
2024/03/19 00:04:05;;;;;;;8.23;7.53;;;;;;;9.45;67.08;101260.25;4994409;28;20271;-78
2024/03/19 00:06:34;;;;;;;8.27;7.10;;;;;;;9.45;66.70;101260.25;4994333;28;20208;-78
2024/03/19 00:09:01;;;;;;;7.07;6.47;;;;;;;9.50;66.79;101274.16;4993840;28;20266;-79
2024/03/19 00:11:29;;;;;;;8.00;7.33;;;;;;;9.54;65.57;101287.16;4994448;28;20277;-79
2024/03/19 00:13:56;;;;;;;7.97;7.17;;;;;;;9.56;66.00;101299.34;4994014;28;20232;-80
2024/03/19 00:16:23;;;;;;;7.93;7.27;;;;;;;9.51;66.34;101297.63;4990245;28;20409;-78
2024/03/19 00:18:52;;;;;;;8.53;6.80;;;;;;;9.55;64.48;101327.13;4990391;28;20255;-77
2024/03/19 00:21:19;;;;;;;7.60;7.00;;;;;;;9.57;62.96;101354.06;4993974;28;20217;-79
2024/03/19 00:23:45;;;;;;;7.73;7.13;;;;;;;9.58;64.97;101362.75;4994383;28;20232;-80
2024/03/19 00:26:12;;;;;;;6.83;6.23;;;;;;;9.59;65.62;101344.50;4994038;28;20235;-80
2024/03/19 00:28:38;;;;;;;7.40;6.80;;;;;;;9.56;65.73;101344.50;4993808;28;20204;-79
2024/03/19 00:31:06;;;;;;;7.67;7.07;;;;;;;9.48;67.93;101312.38;4994171;28;20209;-77
2024/03/19 00:33:34;;;;;;;7.43;6.73;;;;;;;9.47;67.77;101279.34;4994547;28;20295;-79
2024/03/19 00:36:00;;;;;;;7.23;6.63;;;;;;;9.46;68.13;101269.81;4993065;28;20279;-81
2024/03/19 00:38:27;;;;;;;6.97;6.33;;;;;;;9.42;67.99;101255.06;4994492;28;20275;-79
2024/03/19 00:40:57;;;;;;;7.10;6.50;;;;;;;9.39;68.98;101245.47;4994519;28;20260;-78
2024/03/19 00:43:24;;;;;;;7.27;6.63;;;;;;;9.39;68.94;101232.44;4993405;28;20205;-78
2024/03/19 00:45:50;;;;;;;7.10;6.50;;;;;;;9.36;68.71;101227.25;4994744;28;20610;-79
2024/03/19 00:48:16;;;;;;;8.17;6.03;;;;;;;9.39;67.16;101242.88;4993698;28;20207;-79
2024/03/19 00:50:45;;;;;;;7.20;5.90;;;;;;;9.41;67.84;101248.94;4993674;28;20218;-79
2024/03/19 00:53:11;;;;;;;6.47;5.97;;;;;;;9.39;67.78;101244.63;4994026;28;20208;-79
2024/03/19 00:55:38;;;;;;;6.77;6.17;;;;;;;9.40;67.99;101254.19;4994747;28;20224;-81
2024/03/19 00:58:04;;;;;;;6.90;5.97;;;;;;;9.39;69.04;101249.81;4994731;28;20217;-80
2024/03/19 01:00:31;;;;;;;6.50;6.00;;;;;;;9.37;68.91;101235.94;4996377;28;20207;-79
2024/03/19 01:02:58;;;;;;;7.00;6.40;;;;;;;9.37;68.65;101236.78;4995701;28;20208;-79
2024/03/19 01:05:25;;;;;;;6.67;6.07;;;;;;;9.37;69.06;101241.16;4995617;28;20286;-80
2024/03/19 01:07:52;;;;;;;6.00;5.53;;;;;;;9.30;69.05;101227.28;4995918;28;20223;-79
2024/03/19 01:10:19;;;;;;;6.03;5.50;;;;;;;9.28;69.59;101213.38;4994937;28;20273;-81
2024/03/19 01:12:46;;;;;;;6.27;5.77;;;;;;;9.27;70.14;101198.59;4995138;28;20207;-79
2024/03/19 01:15:12;;;;;;;6.73;6.23;;;;;;;9.29;68.58;101194.25;4995523;28;20230;-81
2024/03/19 01:17:39;;;;;;;6.60;6.00;;;;;;;9.29;68.34;101207.28;4995362;28;20676;-80
2024/03/19 01:20:09;;;;;;;6.17;5.67;;;;;;;9.30;69.10;101206.44;4995309;28;20212;-80
2024/03/19 01:22:36;;;;;;;6.30;5.80;;;;;;;9.25;69.75;101209.00;4995984;28;20205;-79
2024/03/19 01:25:06;;;;;;;6.60;6.00;;;;;;;9.29;69.91;101184.69;4995603;28;20241;-80
2024/03/19 01:27:32;;;;;;;6.60;6.00;;;;;;;9.21;70.43;101181.25;4995550;28;20646;-78
2024/03/19 01:29:59;;;;;;;7.03;5.70;;;;;;;9.15;71.14;101158.66;4995626;28;20212;-80
2024/03/19 01:32:25;;;;;;;6.70;6.10;;;;;;;9.20;70.71;101144.78;4995602;28;20211;-81
2024/03/19 01:34:54;;;;;;;6.50;5.90;;;;;;;9.23;71.03;101144.78;4993412;28;20229;-78
2024/03/19 01:37:21;;;;;;;6.27;5.77;;;;;;;9.30;67.50;101164.75;4994566;28;20204;-80
2024/03/19 01:39:47;;;;;;;5.87;5.30;;;;;;;9.27;69.05;101181.22;4994710;28;20235;-79
2024/03/19 01:42:15;;;;;;;5.80;5.30;;;;;;;9.31;68.75;101175.13;4994476;28;20215;-79
2024/03/19 01:44:41;;;;;;;6.40;5.80;;;;;;;9.27;69.44;101177.75;4994675;28;20233;-79
2024/03/19 01:47:08;;;;;;;7.40;6.70;;;;;;;9.27;69.33;101177.75;4993585;28;20244;-80
2024/03/19 01:49:35;;;;;;;6.07;5.57;;;;;;;9.20;70.67;101168.25;4987808;28;20212;-79
2024/03/19 01:52:05;;;;;;;5.83;5.33;;;;;;;9.19;69.99;101154.31;4995104;28;20213;-78
2024/03/19 01:54:33;;;;;;;6.90;6.20;;;;;;;9.18;69.35;101160.41;4995305;28;20313;-79
2024/03/19 01:56:59;;;;;;;6.60;6.00;;;;;;;9.17;70.35;101153.47;4994603;28;20203;-77
2024/03/19 01:59:27;;;;;;;5.90;5.40;;;;;;;9.21;70.02;101149.97;4987530;28;20610;-81
2024/03/19 02:01:53;;;;;;;6.30;5.70;;;;;;;9.20;70.61;101143.06;4994810;28;20208;-80
2024/03/19 02:04:20;;;;;;;6.73;6.13;;;;;;;9.17;70.63;101140.44;4994299;28;20229;-80
2024/03/19 02:06:46;;;;;;;6.60;6.03;;;;;;;9.14;70.73;101138.72;4996413;28;20212;-79
2024/03/19 02:09:13;;;;;;;6.27;5.70;;;;;;;9.09;70.69;101148.25;4999013;28;20216;-80
2024/03/19 02:11:40;;;;;;;6.23;5.73;;;;;;;9.05;71.63;101141.31;4998124;28;20422;-80
2024/03/19 02:14:07;;;;;;;6.67;6.17;;;;;;;9.05;71.82;101124.84;4998510;28;20215;-80
2024/03/19 02:16:37;;;;;;;7.30;6.10;;;;;;;9.04;71.67;101117.88;4999399;28;20599;-80
2024/03/19 02:19:05;;;;;;;6.27;5.73;;;;;;;9.02;70.91;101123.13;4998599;28;20211;-80
2024/03/19 02:21:34;;;;;;;6.30;5.77;;;;;;;9.08;72.59;101099.66;4998351;28;20226;-78
2024/03/19 02:24:04;;;;;;;6.40;5.90;;;;;;;9.04;72.37;101089.22;4999035;28;20216;-82
2024/03/19 02:26:32;;;;;;;5.80;5.40;;;;;;;9.02;71.46;101081.44;4999366;28;20205;-81
2024/03/19 02:28:59;;;;;;;6.27;5.77;;;;;;;9.01;71.79;101084.91;4998615;28;20216;-78
2024/03/19 02:31:27;;;;;;;6.27;5.67;;;;;;;8.90;73.48;101077.13;4998822;28;20203;-79
2024/03/19 02:33:55;;;;;;;6.27;5.77;;;;;;;8.86;73.30;101056.28;4998507;28;20237;-80
2024/03/19 02:36:21;;;;;;;6.57;6.00;;;;;;;8.84;73.57;101048.50;4998458;28;20253;-80
2024/03/19 02:38:48;;;;;;;6.43;5.93;;;;;;;8.90;72.84;101042.41;4998712;28;20238;-81
2024/03/19 02:41:15;;;;;;;5.77;5.37;;;;;;;8.92;72.96;101051.09;4997851;28;20260;-80
2024/03/19 02:43:41;;;;;;;6.40;5.93;;;;;;;8.83;73.83;101043.31;4998307;28;20232;-80
2024/03/19 02:46:07;;;;;;;6.57;5.97;;;;;;;8.82;74.40;101041.56;4998502;28;20266;-80
2024/03/19 02:48:34;;;;;;;6.20;5.70;;;;;;;8.79;74.55;101036.38;4997632;28;20281;-79
2024/03/19 02:51:00;;;;;;;6.90;6.30;;;;;;;8.78;73.82;101019.00;4997487;28;20205;-77
2024/03/19 02:53:27;;;;;;;6.00;5.50;;;;;;;8.79;73.33;101034.63;4998520;28;20203;-79
2024/03/19 02:55:54;;;;;;;6.17;5.67;;;;;;;8.80;73.01;101038.09;4998298;28;20224;-79
2024/03/19 02:58:22;;;;;;;6.97;6.00;;;;;;;8.78;73.74;101025.09;4997759;28;20208;-80
2024/03/19 03:00:49;;;;;;;6.40;5.90;;;;;;;8.69;74.22;101023.34;4997866;28;20219;-81
2024/03/19 03:03:16;;;;;;;6.90;6.30;;;;;;;8.68;74.47;101026.84;4997638;28;20222;-79
2024/03/19 03:05:45;;;;;;;5.87;5.37;;;;;;;8.65;74.46;101015.56;4998672;28;20286;-82
2024/03/19 03:08:11;;;;;;;6.10;5.60;;;;;;;8.60;73.52;101019.91;4997854;28;20212;-80
2024/03/19 03:10:38;;;;;;;6.17;5.67;;;;;;;8.62;73.49;101025.97;4998149;28;20217;-78
2024/03/19 03:13:04;;;;;;;7.10;6.50;;;;;;;8.65;72.74;101033.78;4997294;28;20238;-80
2024/03/19 03:15:32;;;;;;;5.63;5.13;;;;;;;8.60;72.88;101049.38;4997765;28;20228;-79
2024/03/19 03:17:59;;;;;;;6.83;5.53;;;;;;;8.52;73.50;101053.72;4997709;28;20275;-80
2024/03/19 03:20:25;;;;;;;6.10;5.60;;;;;;;8.50;74.06;101038.16;4996941;28;20205;-81
2024/03/19 03:22:52;;;;;;;6.20;5.63;;;;;;;8.48;73.62;101039.00;4997758;28;20414;-80
2024/03/19 03:25:18;;;;;;;6.10;5.37;;;;;;;8.42;73.82;101037.25;4997526;28;20229;-80
2024/03/19 03:27:46;;;;;;;6.70;6.10;;;;;;;8.38;73.69;101037.25;4996822;28;20212;-80
2024/03/19 03:30:13;;;;;;;6.97;6.30;;;;;;;8.37;73.40;101041.59;4997392;28;20752;-80
2024/03/19 03:32:42;;;;;;;7.23;6.63;;;;;;;8.26;74.22;101040.72;4998448;28;20216;-81
2024/03/19 03:35:09;;;;;;;6.67;6.07;;;;;;;8.28;73.73;101047.63;4997495;28;20229;-78
2024/03/19 03:37:35;;;;;;;7.27;6.23;;;;;;;8.28;73.41;101054.56;4997430;28;20220;-79
2024/03/19 03:40:08;;;;;;;6.93;6.43;;;;;;;8.22;74.01;101049.38;4997690;28;20268;-79
2024/03/19 03:42:36;;;;;;;6.83;6.07;;;;;;;8.06;75.71;101032.91;4997852;28;20210;-79
2024/03/19 03:45:02;;;;;;;6.60;6.00;;;;;;;8.15;74.82;101009.50;4997110;28;20240;-81
2024/03/19 03:47:29;;;;;;;9.73;6.10;;;;;;;8.13;73.72;101025.09;4996790;28;20741;-80
2024/03/19 03:49:57;;;;;;;7.03;5.57;;;;;;;8.06;74.42;101031.16;4996408;28;20294;-81
2024/03/19 03:52:25;;;;;;;6.57;6.00;;;;;;;8.04;73.63;101042.44;4997082;28;20205;-81
2024/03/19 03:54:52;;;;;;;6.73;6.13;;;;;;;8.04;73.13;101039.81;4997075;28;20223;-80
2024/03/19 03:57:18;;;;;;;7.00;6.40;;;;;;;7.95;75.28;101036.34;4996351;28;20239;-80
2024/03/19 03:59:45;;;;;;;6.93;6.33;;;;;;;7.92;75.19;101007.75;4996884;28;20230;-81
2024/03/19 04:02:11;;;;;;;7.33;6.63;;;;;;;7.93;75.52;101001.69;4996297;28;20205;-78
2024/03/19 04:04:37;;;;;;;7.40;6.73;;;;;;;7.88;75.38;100998.22;4996004;28;20242;-80
2024/03/19 04:07:05;;;;;;;6.97;6.37;;;;;;;7.82;74.69;101016.41;4996228;28;20203;-80
2024/03/19 04:09:31;;;;;;;6.87;6.27;;;;;;;7.76;74.11;101017.25;4996620;28;20204;-80
2024/03/19 04:11:57;;;;;;;5.90;5.50;;;;;;;7.69;74.61;101012.03;4996245;28;20238;-80
2024/03/19 04:14:24;;;;;;;6.43;5.93;;;;;;;7.62;75.45;101011.16;4996671;28;20605;-81
2024/03/19 04:16:50;;;;;;;6.80;6.30;;;;;;;7.68;74.54;101003.38;4996915;28;20210;-79
2024/03/19 04:19:17;;;;;;;6.50;6.00;;;;;;;7.56;76.74;100992.97;4996253;28;20208;-80
2024/03/19 04:21:44;;;;;;;6.93;6.33;;;;;;;7.51;76.93;100966.09;4996679;28;20687;-80
2024/03/19 04:24:12;;;;;;;7.40;6.80;;;;;;;7.51;76.02;100969.59;4997169;28;20209;-80
2024/03/19 04:26:39;;;;;;;6.97;6.37;;;;;;;7.56;75.63;100973.03;4989414;28;20236;-78
2024/03/19 04:29:05;;;;;;;6.37;5.80;;;;;;;7.61;75.33;100969.59;4995921;28;20204;-80
2024/03/19 04:31:33;;;;;;;6.43;5.93;;;;;;;7.64;75.36;100988.66;4995893;28;20208;-80
2024/03/19 04:33:59;;;;;;;6.37;5.87;;;;;;;7.52;76.02;100968.72;4996735;28;20212;-81
2024/03/19 04:36:25;;;;;;;7.00;6.40;;;;;;;7.52;75.68;100966.09;4995937;28;20290;-80
2024/03/19 04:38:52;;;;;;;5.67;5.27;;;;;;;7.53;74.86;100983.44;4996100;28;20707;-79
2024/03/19 04:41:19;;;;;;;5.93;5.17;;;;;;;7.41;75.17;100990.31;4995930;28;20230;-80
2024/03/19 04:43:46;;;;;;;5.73;5.23;;;;;;;7.38;74.70;100996.38;4995924;28;20237;-79
2024/03/19 04:46:12;;;;;;;6.57;5.93;;;;;;;7.43;75.60;100991.19;4995918;28;20259;-79
2024/03/19 04:48:38;;;;;;;6.07;5.57;;;;;;;7.35;75.78;100988.56;4987895;28;20204;-78
2024/03/19 04:51:05;;;;;;;6.50;6.00;;;;;;;7.30;76.73;100975.56;4995209;28;20244;-79
2024/03/19 04:53:31;;;;;;;6.77;6.13;;;;;;;7.18;77.20;100959.97;4995766;28;20205;-80
2024/03/19 04:55:58;;;;;;;7.50;6.90;;;;;;;7.03;78.44;100927.03;4995612;28;20239;-79
2024/03/19 04:58:25;;;;;;;6.33;5.83;;;;;;;7.05;78.51;100916.66;4994831;28;20209;-80
2024/03/19 05:00:53;;;;;;;7.17;6.57;;;;;;;7.01;78.42;100901.94;4995030;28;20753;-80
2024/03/19 05:03:19;;;;;;;7.47;6.77;;;;;;;7.01;78.58;100887.22;4995253;28;20201;-79
2024/03/19 05:05:45;;;;;;;6.73;6.20;;;;;;;7.02;78.62;100890.69;4996115;28;20596;-80
2024/03/19 05:08:12;;;;;;;7.30;6.60;;;;;;;6.87;79.42;100887.16;4995135;28;20208;-80
2024/03/19 05:10:38;;;;;;;6.63;6.13;;;;;;;6.87;78.34;100883.72;4994511;28;20747;-80
2024/03/19 05:13:04;;;;;;;6.37;5.87;;;;;;;6.93;77.71;100884.59;4993529;28;20260;-79
2024/03/19 05:15:32;;;;;;;7.87;5.80;;;;;;;6.87;78.31;100891.50;4995523;28;20637;-80
2024/03/19 05:17:58;;;;;;;6.03;5.40;;;;;;;6.88;78.72;100896.72;4995861;28;20236;-80
2024/03/19 05:20:25;;;;;;;7.67;6.97;;;;;;;6.85;78.80;100890.63;4995476;28;20204;-78
2024/03/19 05:22:51;;;;;;;9.47;6.70;;;;;;;6.81;78.90;100883.69;4994320;28;20599;-80
2024/03/19 05:25:18;;;;;;;6.53;5.90;;;;;;;6.75;79.25;100867.22;5056672;22;20237;-75
2024/03/19 05:27:44;;;;;;;6.43;5.83;;;;;;;6.66;79.73;100871.53;5042757;28;20198;-77
2024/03/19 05:30:11;;;;;;;6.50;5.87;;;;;;;6.68;78.24;100854.22;5050659;28;20234;-77
2024/03/19 05:32:39;;;;;;;6.80;6.30;;;;;;;6.70;78.62;100856.00;5050664;28;20241;-76
2024/03/19 05:35:06;;;;;;;6.10;5.60;;;;;;;6.74;78.26;100875.03;5049351;28;20241;-77
2024/03/19 05:37:32;;;;;;;7.20;6.50;;;;;;;6.64;79.57;100870.66;5030614;28;20198;-76
2024/03/19 05:39:59;;;;;;;7.40;6.73;;;;;;;6.64;79.66;100862.88;5025154;28;20203;-77
2024/03/19 05:42:25;;;;;;;6.90;6.33;;;;;;;6.66;79.61;100871.53;5012375;28;20679;-77
2024/03/19 05:44:53;;;;;;;6.13;5.63;;;;;;;6.64;79.45;100870.66;5015330;28;20204;-77
2024/03/19 05:47:19;;;;;;;7.70;7.00;;;;;;;6.59;80.64;100862.00;5014972;28;20263;-77
2024/03/19 05:49:47;;;;;;;7.27;6.57;;;;;;;6.66;79.56;100868.94;5014741;28;20246;-76
2024/03/19 05:52:13;;;;;;;7.23;6.23;;;;;;;6.57;80.39;100860.25;5014476;28;20222;-77
2024/03/19 05:54:40;;;;;;;7.03;6.43;;;;;;;6.63;79.76;100859.41;5015092;28;20235;-77
2024/03/19 05:57:06;;;;;;;7.70;7.00;;;;;;;6.67;79.34;100873.28;5028864;28;20268;-77
2024/03/19 05:59:33;;;;;;;7.30;6.70;;;;;;;6.68;78.93;100883.66;5034781;28;20320;-77
2024/03/19 06:01:59;;;;;;;6.43;5.93;;;;;;;6.61;78.21;100907.81;5034731;28;20218;-77
2024/03/19 06:04:28;;;;;;;6.73;6.13;;;;;;;6.68;77.93;100914.78;5034959;28;20203;-77
2024/03/19 06:06:55;;;;;;;6.97;6.37;;;;;;;6.69;78.13;100929.47;5034002;28;20719;-77
2024/03/19 06:09:22;;;;;;;7.87;7.27;;;;;;;6.69;79.10;100924.28;5034566;28;20207;-77
2024/03/19 06:11:48;;;;;;;7.30;6.63;;;;;;;6.81;79.19;100912.25;5014061;28;20199;-76
2024/03/19 06:14:15;;;;;;;6.80;6.20;;;;;;;6.88;78.28;100917.47;5024828;28;20207;-79
2024/03/19 06:16:41;;;;;;;7.00;6.50;;;;;;;6.83;79.93;100913.13;5014742;28;20298;-79
2024/03/19 06:19:07;;;;;;;7.93;7.17;;;;;;;6.86;79.62;100895.84;5014531;28;20231;-76
2024/03/19 06:21:34;;;;;;;7.40;6.67;;;;;;;6.89;79.67;100892.38;5015027;28;20212;-77
2024/03/19 06:24:02;;;;;;;8.40;6.97;;;;;;;6.89;79.82;100901.00;5028892;28;20200;-76
2024/03/19 06:26:28;;;;;;;7.10;6.60;;;;;;;6.99;79.13;100901.06;5024553;28;20223;-77
2024/03/19 06:28:54;;;;;;;7.23;6.43;;;;;;;7.04;76.51;100931.38;5013826;28;20258;-76
2024/03/19 06:31:20;;;;;;;7.10;6.50;;;;;;;7.07;78.44;100946.06;5014418;28;20229;-77
2024/03/19 06:33:48;;;;;;;10.17;6.27;;;;;;;7.06;78.60;100946.94;5025735;28;20206;-77
2024/03/19 06:36:15;;;;;;;6.93;6.43;;;;;;;6.97;80.03;100940.84;5033286;28;20640;-77
2024/03/19 06:38:42;;;;;;;7.40;6.70;;;;;;;7.07;80.07;100926.16;5033608;28;20674;-77
2024/03/19 06:41:09;;;;;;;6.93;6.43;;;;;;;7.09;80.31;100923.59;5033475;28;20207;-77
2024/03/19 06:43:36;;;;;;;6.63;6.03;;;;;;;7.14;79.16;100938.31;5033190;28;20207;-78
2024/03/19 06:46:02;;;;;;;7.77;6.33;;;;;;;7.23;79.01;100931.41;5033634;28;20269;-77
2024/03/19 06:48:29;;;;;;;6.47;5.87;;;;;;;7.26;79.31;100932.28;5033252;28;20202;-77
2024/03/19 06:50:55;;;;;;;7.40;6.40;;;;;;;7.29;79.89;100936.63;5032975;28;20670;-76
2024/03/19 06:53:23;;;;;;;7.73;7.07;;;;;;;7.39;77.80;100948.75;5033548;28;20202;-77
2024/03/19 06:55:49;;;;;;;8.10;7.40;;;;;;;7.45;78.79;100959.19;5025796;28;20218;-77
2024/03/19 06:58:17;;;;;;;8.00;7.30;;;;;;;7.49;78.48;100963.53;5032757;28;20226;-77
2024/03/19 07:00:43;;;;;;;8.40;7.67;;;;;;;7.58;79.04;100948.81;5033352;28;20242;-77
2024/03/19 07:03:10;;;;;;;7.67;6.97;;;;;;;7.63;78.55;100953.16;5033173;28;20229;-77
2024/03/19 07:05:38;;;;;;;7.90;7.30;;;;;;;7.70;78.26;100960.06;5033240;28;20226;-77
2024/03/19 07:08:05;;;;;;;8.17;7.57;;;;;;;7.74;77.89;100976.53;5033009;28;20213;-77
2024/03/19 07:10:32;;;;;;;7.57;6.87;;;;;;;7.80;77.96;100991.28;5033057;28;20893;-77
2024/03/19 07:12:58;;;;;;;7.67;6.97;;;;;;;7.90;77.03;101008.63;5024631;28;20214;-77
2024/03/19 07:15:26;;;;;;;11.87;7.10;;;;;;;7.96;75.71;101030.28;5033054;28;20250;-76
2024/03/19 07:17:52;;;;;;;8.87;7.83;;;;;;;8.00;76.70;101040.69;5032769;28;20198;-77
2024/03/19 07:20:19;;;;;;;7.87;7.17;;;;;;;8.08;76.49;101046.75;5032744;28;20213;-77
2024/03/19 07:22:47;;;;;;;8.10;7.40;;;;;;;8.16;75.92;101052.84;5033047;28;20245;-77
2024/03/19 07:25:13;;;;;;;8.20;7.50;;;;;;;8.28;74.82;101091.00;5032584;28;20208;-77
2024/03/19 07:27:41;;;;;;;7.50;6.90;;;;;;;8.36;73.44;101112.66;5014078;28;20319;-77
2024/03/19 07:30:09;;;;;;;7.90;6.80;;;;;;;8.42;74.62;101132.66;5013091;28;20200;-77
2024/03/19 07:32:36;;;;;;;7.83;7.03;;;;;;;8.52;73.83;101139.59;5012658;28;20212;-76
2024/03/19 07:35:03;;;;;;;8.00;7.20;;;;;;;8.62;74.38;101150.88;5012904;28;20228;-77
2024/03/19 07:37:29;;;;;;;8.47;7.70;;;;;;;8.72;74.56;101145.69;5024107;28;20665;-77
2024/03/19 07:39:56;;;;;;;10.53;8.33;;;;;;;8.87;73.40;101162.19;5032381;28;20240;-76
2024/03/19 07:42:23;;;;;;;8.67;7.87;;;;;;;8.99;73.66;101174.31;5032166;28;20218;-75
2024/03/19 07:44:51;;;;;;;10.00;9.10;;;;;;;9.08;73.40;101182.16;5032576;28;20258;-75
2024/03/19 07:47:18;;;;;;;8.87;8.07;;;;;;;9.23;73.08;101184.72;5032497;28;20739;-76
2024/03/19 07:49:45;;;;;;;9.00;8.20;;;;;;;9.41;72.91;101185.56;5033741;28;20202;-78
2024/03/19 07:52:12;;;;;;;9.20;8.40;;;;;;;9.50;70.82;101222.03;5034744;28;20268;-78
2024/03/19 07:54:38;;;;;;;9.43;8.63;;;;;;;9.56;70.50;101248.06;5034230;28;20210;-78
2024/03/19 07:57:05;;;;;;;9.67;8.77;;;;;;;9.59;70.33;101271.50;5020403;28;20218;-77
2024/03/19 07:59:31;;;;;;;12.10;10.90;;;;;;;9.60;69.74;101291.50;5014495;28;20232;-78
2024/03/19 08:01:57;;;;;;;12.00;10.87;;;;;;;9.66;69.77;101301.91;5014233;28;20238;-78
2024/03/19 08:04:24;;;;;;;11.87;10.67;;;;;;;9.76;70.13;101304.53;5014789;28;20215;-78
2024/03/19 08:06:52;;;;;;;12.47;11.30;;;;;;;9.77;70.38;101309.72;5014816;28;20231;-78
2024/03/19 08:09:19;;;;;;;12.33;10.90;;;;;;;9.83;70.40;101301.03;5015079;28;20890;-78
2024/03/19 08:11:45;;;;;;;12.20;11.10;;;;;;;9.71;70.42;101309.72;5015865;28;20267;-79
2024/03/19 08:14:11;;;;;;;12.40;11.20;;;;;;;9.77;69.90;101314.06;5015905;28;20246;-79
2024/03/19 08:16:38;;;;;;;13.27;11.03;;;;;;;9.94;75.13;101276.66;5019275;28;20220;-81
2024/03/19 08:19:05;;;;;;;12.77;11.47;;;;;;;10.11;74.69;101220.97;5020222;28;20721;-83
2024/03/19 08:21:31;;;;;;;12.67;11.43;;;;;;;10.03;72.14;101217.50;5018404;28;20217;-80
2024/03/19 08:23:59;;;;;;;13.03;11.67;;;;;;;10.36;74.11;101192.16;5038560;28;20212;-82
2024/03/19 08:26:25;;;;;;;14.20;12.80;;;;;;;10.59;77.53;101127.63;5036281;28;20658;-82
2024/03/19 08:28:51;;;;;;;16.13;12.63;;;;;;;10.59;72.19;101161.56;5028459;28;20206;-81
2024/03/19 08:31:18;;;;;;;14.27;12.80;;;;;;;10.80;74.99;101157.94;5038660;28;20212;-80
2024/03/19 08:33:44;;;;;;;14.77;13.37;;;;;;;10.97;73.83;101154.28;5038604;28;20266;-83
2024/03/19 08:36:10;;;;;;;15.17;13.63;;;;;;;11.16;74.44;101149.75;5039799;28;20847;-78
2024/03/19 08:38:37;;;;;;;14.83;13.43;;;;;;;11.35;74.93;101130.38;5043844;28;20213;-79
2024/03/19 08:41:05;;;;;;;17.43;14.37;;;;;;;11.46;74.19;101135.50;5049333;28;20236;-80
2024/03/19 08:43:31;;;;;;;18.53;14.63;;;;;;;11.56;72.73;101150.19;5050144;28;20206;-78
2024/03/19 08:45:57;;;;;;;17.63;15.57;;;;;;;11.63;73.43;101184.97;5045572;28;20226;-78
2024/03/19 08:48:24;;;;;;;17.67;14.80;;;;;;;11.48;71.91;101201.72;5052112;28;20200;-79
2024/03/19 08:50:52;;;;;;;16.60;14.80;;;;;;;11.40;71.98;101206.16;5042531;28;20267;-78
2024/03/19 08:53:19;;;;;;;17.50;15.80;;;;;;;11.33;74.14;101213.16;5040770;28;20460;-80
2024/03/19 08:55:56;;;;;;;17.00;15.20;;;;;;;11.64;76.04;101155.34;5035460;28;20283;-82
2024/03/19 08:58:23;;;;;;;17.40;15.27;;;;;;;11.80;74.90;101140.31;5015604;28;20200;-79
2024/03/19 09:00:50;;;;;;;18.73;14.30;;;;;;;11.89;74.56;101148.06;5018560;28;20213;-82
2024/03/19 09:03:16;;;;;;;15.87;14.27;;;;;;;11.93;74.98;101160.22;5015820;28;20277;-79
2024/03/19 09:05:43;;;;;;;15.40;13.90;;;;;;;12.07;75.71;101136.50;5016710;28;20791;-81
2024/03/19 09:08:09;;;;;;;15.77;14.13;;;;;;;12.16;74.73;101125.03;5014364;28;20261;-79
2024/03/19 09:10:35;;;;;;;16.47;13.73;;;;;;;12.18;73.57;101165.16;5014340;28;20245;-78
2024/03/19 09:13:02;;;;;;;16.30;14.07;;;;;;;12.22;73.39;101172.06;5015427;28;20219;-81
2024/03/19 09:15:29;;;;;;;15.67;14.17;;;;;;;12.25;72.68;101199.06;5016432;28;20234;-79
2024/03/19 09:17:55;;;;;;;15.57;14.03;;;;;;;12.20;73.06;101206.09;5017001;28;20641;-79
2024/03/19 09:20:22;;;;;;;16.50;14.90;;;;;;;12.20;72.96;101207.88;5018830;28;20209;-79
2024/03/19 09:22:49;;;;;;;17.20;15.27;;;;;;;12.19;71.88;101235.81;5028321;28;20217;-78
2024/03/19 09:25:16;;;;;;;16.70;15.10;;;;;;;12.20;72.95;101241.91;5031606;28;20209;-81
2024/03/19 09:27:43;;;;;;;19.27;15.60;;;;;;;12.14;73.59;101216.66;5019568;28;20226;-78
2024/03/19 09:30:11;;;;;;;16.10;14.60;;;;;;;12.01;71.99;101222.94;5020614;28;20218;-79
2024/03/19 09:32:39;;;;;;;16.83;14.80;;;;;;;12.10;73.13;101230.66;5020271;28;20240;-80
2024/03/19 09:35:06;;;;;;;19.33;16.43;;;;;;;12.25;74.19;101199.06;5021123;28;20252;-79
2024/03/19 09:37:32;;;;;;;17.97;16.07;;;;;;;12.37;73.20;101208.50;5020702;28;20209;-79
2024/03/19 09:39:59;;;;;;;22.00;16.90;;;;;;;12.42;73.63;101206.66;5020312;28;20202;-81
2024/03/19 09:42:26;;;;;;;18.50;16.70;;;;;;;12.32;71.38;101228.63;5021520;28;20210;-82
2024/03/19 09:44:53;;;;;;;16.93;15.27;;;;;;;12.64;72.80;101228.19;5020482;28;20209;-81
2024/03/19 09:47:22;;;;;;;18.30;16.33;;;;;;;12.83;73.73;101214.81;5020524;28;20225;-81
2024/03/19 09:49:50;;;;;;;16.87;15.17;;;;;;;12.91;72.23;101234.75;5019812;28;20209;-79
2024/03/19 09:52:17;;;;;;;20.63;14.77;;;;;;;13.09;71.01;101245.84;5027494;28;20209;-81
2024/03/19 09:54:43;;;;;;;17.90;16.10;;;;;;;13.01;68.94;101287.91;5041208;28;20206;-80
2024/03/19 09:57:14;;;;;;;20.43;16.47;;;;;;;13.23;71.07;101290.19;5041505;28;20222;-80
2024/03/19 09:59:41;;;;;;;16.93;15.23;;;;;;;12.95;67.79;101335.16;5041076;28;20202;-81
2024/03/19 10:02:16;;;;;;;16.77;15.07;;;;;;;12.97;69.48;101362.22;5038602;28;20206;-79
2024/03/19 10:04:45;;;;;;;17.80;16.07;;;;;;;13.17;71.73;101314.72;5037357;28;20211;-79
2024/03/19 10:07:13;;;;;;;17.60;15.60;;;;;;;13.21;69.76;101315.56;5038260;28;20237;-79
2024/03/19 10:09:39;;;;;;;16.57;14.07;;;;;;;13.41;71.96;101300.38;5038765;28;20209;-79
2024/03/19 10:12:08;;;;;;;17.10;15.50;;;;;;;13.46;71.00;101292.47;5029729;28;20298;-79
2024/03/19 10:14:34;;;;;;;19.23;16.17;;;;;;;13.63;71.82;101281.66;4341304;28;10000735;-80
2024/03/19 10:17:02;;;;;;;19.07;15.07;;;;;;;13.66;70.65;101285.09;5037507;28;20224;-79
2024/03/19 10:19:28;;;;;;;17.73;16.03;;;;;;;13.32;67.66;101353.00;5037542;28;20210;-82
2024/03/19 10:21:54;;;;;;;18.23;16.00;;;;;;;13.18;67.04;101368.91;5036748;28;20216;-80
2024/03/19 10:24:23;;;;;;;17.73;15.87;;;;;;;13.39;69.00;101359.00;5038764;28;20213;-81
2024/03/19 10:26:51;;;;;;;16.90;15.30;;;;;;;13.51;70.65;101336.06;5020476;28;20264;-82
2024/03/19 10:29:18;;;;;;;16.37;14.77;;;;;;;13.60;69.09;101329.81;5017121;28;20207;-80
2024/03/19 10:31:46;;;;;;;19.03;15.40;;;;;;;13.66;71.25;101311.34;5018174;28;20280;-79
2024/03/19 10:34:18;;;;;;;18.63;15.77;;;;;;;13.72;69.59;101318.22;5036404;28;20205;-81
2024/03/19 10:36:47;;;;;;;17.07;15.27;;;;;;;13.73;67.75;101346.19;5036870;28;20232;-81
2024/03/19 10:39:15;;;;;;;16.47;14.87;;;;;;;13.92;68.42;101356.38;5038304;28;20203;-79
2024/03/19 10:41:48;;;;;;;17.70;15.90;;;;;;;14.05;66.82;101360.50;5035948;28;20645;-79
2024/03/19 10:44:17;;;;;;;23.13;16.00;;;;;;;14.05;66.49;101399.88;5028965;28;20212;-78
2024/03/19 10:46:44;;;;;;;17.70;16.10;;;;;;;13.53;66.72;101427.00;5037783;28;20229;-80
2024/03/19 10:49:14;;;;;;;19.23;16.73;;;;;;;13.41;67.06;101422.78;5036976;28;20203;-80
2024/03/19 10:51:41;;;;;;;17.87;16.03;;;;;;;13.05;68.71;101409.28;5037154;28;20241;-80
2024/03/19 10:54:08;;;;;;;19.53;17.13;;;;;;;13.36;69.23;101370.41;5036509;28;20213;-79
2024/03/19 10:56:35;;;;;;;19.67;15.90;;;;;;;13.36;68.04;101359.03;5020527;28;20281;-81
2024/03/19 10:59:03;;;;;;;19.50;16.70;;;;;;;13.41;69.98;101337.09;5016362;28;20210;-80
2024/03/19 11:01:29;;;;;;;18.57;16.53;;;;;;;13.57;69.62;101332.47;5018814;28;20742;-78
2024/03/19 11:03:57;;;;;;;18.60;15.87;;;;;;;13.45;67.52;101341.41;5020933;28;20210;-81
2024/03/19 11:06:25;;;;;;;17.37;15.53;;;;;;;13.55;67.67;101360.47;5015730;28;20255;-81
2024/03/19 11:08:52;;;;;;;18.07;16.03;;;;;;;13.76;67.65;101361.91;5017399;28;20612;-80
2024/03/19 11:11:19;;;;;;;18.10;16.23;;;;;;;13.68;66.49;101387.41;5015781;28;20209;-80
2024/03/19 11:13:50;;;;;;;19.43;15.57;;;;;;;13.73;66.29;101416.19;5019164;28;20240;-80
2024/03/19 11:16:19;;;;;;;16.57;14.83;;;;;;;13.66;65.51;101434.66;5035970;28;20225;-80
2024/03/19 11:18:46;;;;;;;16.17;14.33;;;;;;;14.06;67.25;101414.75;5033340;28;20221;-80
2024/03/19 11:21:19;;;;;;;18.30;16.40;;;;;;;14.31;66.41;101399.41;5027657;28;20210;-80
2024/03/19 11:23:47;;;;;;;17.53;15.57;;;;;;;14.51;66.63;101409.53;5036101;28;20230;-79
2024/03/19 11:26:15;;;;;;;15.53;13.93;;;;;;;14.60;64.64;101421.66;5023046;28;20300;-80